sensor_id;sensor_type;location;lat;lon;timestamp;pressure;altitude;pressure_sealevel;temperature;humidity
26807;BME280;14380;49.910;6.792;2022-07-06T00:02:21;99632.72;;;16.07;92.02
26807;BME280;14380;49.910;6.792;2022-07-06T00:04:48;99631.84;;;16.06;91.86
26807;BME280;14380;49.910;6.792;2022-07-06T00:07:15;99639.84;;;15.91;92.94
26807;BME280;14380;49.910;6.792;2022-07-06T00:09:42;99642.22;;;15.96;92.29
26807;BME280;14380;49.910;6.792;2022-07-06T00:12:10;99638.91;;;15.78;92.73
26807;BME280;14380;49.910;6.792;2022-07-06T00:14:37;99634.97;;;15.84;92.70
26807;BME280;14380;49.910;6.792;2022-07-06T00:17:04;99636.22;;;15.78;92.77
26807;BME280;14380;49.910;6.792;2022-07-06T00:19:31;99630.72;;;15.67;93.85
26807;BME280;14380;49.910;6.792;2022-07-06T00:21:57;99630.81;;;15.65;94.08
26807;BME280;14380;49.910;6.792;2022-07-06T00:24:24;99633.19;;;15.70;93.60
26807;BME280;14380;49.910;6.792;2022-07-06T00:26:51;99637.66;;;15.55;94.07
26807;BME280;14380;49.910;6.792;2022-07-06T00:29:19;99634.34;;;15.66;93.65
26807;BME280;14380;49.910;6.792;2022-07-06T00:31:45;99629.75;;;15.53;93.73
26807;BME280;14380;49.910;6.792;2022-07-06T00:34:13;99630.78;;;15.07;98.38
26807;BME280;14380;49.910;6.792;2022-07-06T00:36:40;99636.41;;;15.31;96.15
26807;BME280;14380;49.910;6.792;2022-07-06T00:39:06;99640.31;;;14.81;100.00
26807;BME280;14380;49.910;6.792;2022-07-06T00:41:33;99640.25;;;14.97;97.81
26807;BME280;14380;49.910;6.792;2022-07-06T00:44:00;99646.41;;;14.67;100.00
26807;BME280;14380;49.910;6.792;2022-07-06T00:46:30;99639.94;;;14.87;100.00
26807;BME280;14380;49.910;6.792;2022-07-06T00:48:57;99645.97;;;14.58;100.00
26807;BME280;14380;49.910;6.792;2022-07-06T00:51:28;99641.63;;;15.19;97.05
26807;BME280;14380;49.910;6.792;2022-07-06T00:53:58;99646.00;;;15.34;96.70
26807;BME280;14380;49.910;6.792;2022-07-06T00:56:29;99646.00;;;15.34;96.89
26807;BME280;14380;49.910;6.792;2022-07-06T00:58:56;99645.44;;;15.43;96.09
26807;BME280;14380;49.910;6.792;2022-07-06T01:01:23;99647.94;;;15.46;94.98
26807;BME280;14380;49.910;6.792;2022-07-06T01:03:51;99640.50;;;15.52;94.31
26807;BME280;14380;49.910;6.792;2022-07-06T01:06:18;99634.25;;;15.67;92.39
26807;BME280;14380;49.910;6.792;2022-07-06T01:08:44;99639.28;;;15.43;93.27
26807;BME280;14380;49.910;6.792;2022-07-06T01:11:12;99644.22;;;14.90;99.04
26807;BME280;14380;49.910;6.792;2022-07-06T01:13:39;99637.84;;;15.23;96.43
26807;BME280;14380;49.910;6.792;2022-07-06T01:16:06;99631.25;;;15.14;95.91
26807;BME280;14380;49.910;6.792;2022-07-06T01:18:33;99630.59;;;15.10;95.67
26807;BME280;14380;49.910;6.792;2022-07-06T01:21:08;99635.41;;;14.89;97.80
26807;BME280;14380;49.910;6.792;2022-07-06T01:23:39;99640.00;;;14.55;100.00
26807;BME280;14380;49.910;6.792;2022-07-06T01:26:07;99646.97;;;14.25;100.00
26807;BME280;14380;49.910;6.792;2022-07-06T01:28:34;99644.44;;;14.54;100.00
26807;BME280;14380;49.910;6.792;2022-07-06T01:31:01;99649.50;;;14.43;100.00
26807;BME280;14380;49.910;6.792;2022-07-06T01:33:27;99634.41;;;14.60;99.11
26807;BME280;14380;49.910;6.792;2022-07-06T01:35:54;99631.25;;;14.69;98.85
26807;BME280;14380;49.910;6.792;2022-07-06T01:38:22;99639.41;;;14.18;100.00
26807;BME280;14380;49.910;6.792;2022-07-06T01:40:49;99637.03;;;14.13;100.00
26807;BME280;14380;49.910;6.792;2022-07-06T01:43:15;99634.00;;;14.35;100.00
26807;BME280;14380;49.910;6.792;2022-07-06T01:45:42;99638.22;;;14.07;100.00
26807;BME280;14380;49.910;6.792;2022-07-06T01:48:09;99636.56;;;14.21;100.00
26807;BME280;14380;49.910;6.792;2022-07-06T01:50:35;99637.84;;;14.13;100.00
26807;BME280;14380;49.910;6.792;2022-07-06T01:53:02;99631.59;;;13.66;100.00
26807;BME280;14380;49.910;6.792;2022-07-06T01:55:30;99634.53;;;14.10;100.00
26807;BME280;14380;49.910;6.792;2022-07-06T01:57:57;99633.50;;;13.47;100.00
26807;BME280;14380;49.910;6.792;2022-07-06T02:00:23;99638.47;;;13.87;100.00
26807;BME280;14380;49.910;6.792;2022-07-06T02:02:50;99639.00;;;14.25;100.00
26807;BME280;14380;49.910;6.792;2022-07-06T02:05:17;99634.59;;;13.92;100.00
26807;BME280;14380;49.910;6.792;2022-07-06T02:07:43;99638.34;;;13.72;100.00
26807;BME280;14380;49.910;6.792;2022-07-06T02:10:10;99637.53;;;13.88;100.00
26807;BME280;14380;49.910;6.792;2022-07-06T02:12:38;99637.03;;;13.47;100.00
26807;BME280;14380;49.910;6.792;2022-07-06T02:15:06;99633.13;;;13.71;100.00
26807;BME280;14380;49.910;6.792;2022-07-06T02:17:32;99636.03;;;13.15;100.00
26807;BME280;14380;49.910;6.792;2022-07-06T02:19:59;99645.09;;;12.93;100.00
26807;BME280;14380;49.910;6.792;2022-07-06T02:22:26;99638.72;;;13.31;100.00
26807;BME280;14380;49.910;6.792;2022-07-06T02:24:52;99640.28;;;13.52;100.00
26807;BME280;14380;49.910;6.792;2022-07-06T02:27:19;99637.19;;;13.27;100.00
26807;BME280;14380;49.910;6.792;2022-07-06T02:29:47;99640.63;;;13.46;100.00
26807;BME280;14380;49.910;6.792;2022-07-06T02:32:14;99639.13;;;13.41;100.00
26807;BME280;14380;49.910;6.792;2022-07-06T02:34:40;99642.00;;;13.36;100.00
26807;BME280;14380;49.910;6.792;2022-07-06T02:37:07;99632.91;;;13.06;100.00
26807;BME280;14380;49.910;6.792;2022-07-06T02:39:34;99644.00;;;12.79;100.00
26807;BME280;14380;49.910;6.792;2022-07-06T02:42:01;99643.59;;;12.70;100.00
26807;BME280;14380;49.910;6.792;2022-07-06T02:44:27;99636.34;;;12.73;100.00
26807;BME280;14380;49.910;6.792;2022-07-06T02:46:55;99642.34;;;13.12;100.00
26807;BME280;14380;49.910;6.792;2022-07-06T02:49:22;99640.22;;;12.66;100.00
26807;BME280;14380;49.910;6.792;2022-07-06T02:51:49;99636.75;;;13.18;100.00
26807;BME280;14380;49.910;6.792;2022-07-06T02:54:15;99642.44;;;12.75;100.00
26807;BME280;14380;49.910;6.792;2022-07-06T02:56:42;99646.50;;;12.46;100.00
26807;BME280;14380;49.910;6.792;2022-07-06T02:59:09;99659.66;;;12.84;100.00
26807;BME280;14380;49.910;6.792;2022-07-06T03:01:36;99660.28;;;12.89;100.00
26807;BME280;14380;49.910;6.792;2022-07-06T03:04:04;99660.50;;;12.67;100.00
26807;BME280;14380;49.910;6.792;2022-07-06T03:06:31;99659.59;;;12.86;100.00
26807;BME280;14380;49.910;6.792;2022-07-06T03:08:57;99649.50;;;13.28;99.83
26807;BME280;14380;49.910;6.792;2022-07-06T03:11:24;99660.88;;;12.59;100.00
26807;BME280;14380;49.910;6.792;2022-07-06T03:13:51;99663.50;;;12.96;100.00
26807;BME280;14380;49.910;6.792;2022-07-06T03:16:17;99658.34;;;12.93;100.00
26807;BME280;14380;49.910;6.792;2022-07-06T03:18:44;99661.63;;;12.98;100.00
26807;BME280;14380;49.910;6.792;2022-07-06T03:21:12;99662.41;;;12.83;100.00
26807;BME280;14380;49.910;6.792;2022-07-06T03:23:39;99664.88;;;12.86;100.00
26807;BME280;14380;49.910;6.792;2022-07-06T03:26:05;99667.97;;;12.59;100.00
26807;BME280;14380;49.910;6.792;2022-07-06T03:28:32;99672.66;;;12.54;100.00
26807;BME280;14380;49.910;6.792;2022-07-06T03:30:59;99670.72;;;12.38;100.00
26807;BME280;14380;49.910;6.792;2022-07-06T03:33:25;99667.16;;;12.76;100.00
26807;BME280;14380;49.910;6.792;2022-07-06T03:35:52;99670.00;;;12.54;100.00
26807;BME280;14380;49.910;6.792;2022-07-06T03:38:20;99671.41;;;12.24;100.00
26807;BME280;14380;49.910;6.792;2022-07-06T03:40:46;99674.47;;;12.71;100.00
26807;BME280;14380;49.910;6.792;2022-07-06T03:43:13;99674.56;;;12.50;100.00
26807;BME280;14380;49.910;6.792;2022-07-06T03:45:40;99671.38;;;12.43;100.00
26807;BME280;14380;49.910;6.792;2022-07-06T03:48:06;99682.25;;;12.37;100.00
26807;BME280;14380;49.910;6.792;2022-07-06T03:50:33;99679.31;;;12.43;100.00
26807;BME280;14380;49.910;6.792;2022-07-06T03:53:00;99681.22;;;12.40;100.00
26807;BME280;14380;49.910;6.792;2022-07-06T03:55:28;99686.06;;;12.12;100.00
26807;BME280;14380;49.910;6.792;2022-07-06T03:57:55;99687.97;;;12.28;100.00
26807;BME280;14380;49.910;6.792;2022-07-06T04:00:22;99695.53;;;11.97;100.00
26807;BME280;14380;49.910;6.792;2022-07-06T04:02:48;99703.44;;;12.37;100.00
26807;BME280;14380;49.910;6.792;2022-07-06T04:05:15;99703.78;;;12.48;100.00
26807;BME280;14380;49.910;6.792;2022-07-06T04:07:46;99712.94;;;12.60;100.00
26807;BME280;14380;49.910;6.792;2022-07-06T04:10:13;99710.69;;;12.70;100.00
26807;BME280;14380;49.910;6.792;2022-07-06T04:12:41;99710.22;;;13.16;98.53
26807;BME280;14380;49.910;6.792;2022-07-06T04:15:08;99698.03;;;13.47;94.98
26807;BME280;14380;49.910;6.792;2022-07-06T04:17:35;99709.94;;;13.74;93.78
26807;BME280;14380;49.910;6.792;2022-07-06T04:20:22;99698.94;;;13.97;93.25
26807;BME280;14380;49.910;6.792;2022-07-06T04:22:50;99694.06;;;14.38;89.24
26807;BME280;14380;49.910;6.792;2022-07-06T04:25:17;99703.00;;;14.53;91.68
26807;BME280;14380;49.910;6.792;2022-07-06T04:27:45;99700.00;;;14.75;90.45
26807;BME280;14380;49.910;6.792;2022-07-06T04:30:12;99705.38;;;15.20;89.00
26807;BME280;14380;49.910;6.792;2022-07-06T04:32:39;99697.97;;;14.95;92.19
26807;BME280;14380;49.910;6.792;2022-07-06T04:35:06;99708.50;;;15.27;88.73
26807;BME280;14380;49.910;6.792;2022-07-06T04:37:33;99714.22;;;15.21;89.59
26807;BME280;14380;49.910;6.792;2022-07-06T04:39:59;99712.88;;;15.73;88.40
26807;BME280;14380;49.910;6.792;2022-07-06T04:42:26;99716.88;;;15.21;91.72
26807;BME280;14380;49.910;6.792;2022-07-06T04:44:54;99712.31;;;15.97;87.11
26807;BME280;14380;49.910;6.792;2022-07-06T04:47:21;99716.88;;;16.24;82.15
26807;BME280;14380;49.910;6.792;2022-07-06T04:49:48;99719.75;;;16.20;80.81
26807;BME280;14380;49.910;6.792;2022-07-06T04:52:14;99715.69;;;16.42;80.88
26807;BME280;14380;49.910;6.792;2022-07-06T04:54:41;99719.56;;;16.24;82.77
26807;BME280;14380;49.910;6.792;2022-07-06T04:57:08;99717.94;;;16.63;81.33
26807;BME280;14380;49.910;6.792;2022-07-06T04:59:34;99726.03;;;16.19;85.66
26807;BME280;14380;49.910;6.792;2022-07-06T05:02:03;99729.72;;;16.17;85.27
26807;BME280;14380;49.910;6.792;2022-07-06T05:04:30;99735.09;;;16.44;88.64
26807;BME280;14380;49.910;6.792;2022-07-06T05:06:56;99728.66;;;16.76;85.41
26807;BME280;14380;49.910;6.792;2022-07-06T05:09:23;99732.38;;;17.01;83.33
26807;BME280;14380;49.910;6.792;2022-07-06T05:11:50;99732.50;;;17.52;79.81
26807;BME280;14380;49.910;6.792;2022-07-06T05:14:16;99728.03;;;17.66;80.37
26807;BME280;14380;49.910;6.792;2022-07-06T05:16:43;99730.03;;;17.49;79.40
26807;BME280;14380;49.910;6.792;2022-07-06T05:19:11;99733.38;;;17.66;84.28
26807;BME280;14380;49.910;6.792;2022-07-06T05:21:38;99736.06;;;18.05;79.79
26807;BME280;14380;49.910;6.792;2022-07-06T05:24:05;99739.66;;;18.17;78.50
26807;BME280;14380;49.910;6.792;2022-07-06T05:26:32;99738.13;;;18.38;74.72
26807;BME280;14380;49.910;6.792;2022-07-06T05:28:58;99731.09;;;18.62;75.09
26807;BME280;14380;49.910;6.792;2022-07-06T05:31:25;99729.16;;;18.64;70.85
26807;BME280;14380;49.910;6.792;2022-07-06T05:33:52;99733.44;;;18.66;72.91
26807;BME280;14380;49.910;6.792;2022-07-06T05:36:20;99739.19;;;18.73;75.03
26807;BME280;14380;49.910;6.792;2022-07-06T05:38:47;99739.56;;;18.93;70.50
26807;BME280;14380;49.910;6.792;2022-07-06T05:41:13;99735.41;;;19.13;70.65
26807;BME280;14380;49.910;6.792;2022-07-06T05:43:40;99730.66;;;18.92;67.56
26807;BME280;14380;49.910;6.792;2022-07-06T05:46:07;99726.94;;;19.30;68.94
26807;BME280;14380;49.910;6.792;2022-07-06T05:48:34;99728.81;;;19.06;67.37
26807;BME280;14380;49.910;6.792;2022-07-06T05:51:19;99724.00;;;18.49;71.41
26807;BME280;14380;49.910;6.792;2022-07-06T05:53:46;99727.81;;;18.58;68.32
26807;BME280;14380;49.910;6.792;2022-07-06T05:56:13;99722.41;;;18.95;68.57
26807;BME280;14380;49.910;6.792;2022-07-06T05:58:40;99722.41;;;19.20;67.06
26807;BME280;14380;49.910;6.792;2022-07-06T06:01:06;99720.19;;;19.13;67.88
26807;BME280;14380;49.910;6.792;2022-07-06T06:03:34;99727.81;;;18.58;66.61
26807;BME280;14380;49.910;6.792;2022-07-06T06:06:01;99733.38;;;18.18;67.84
26807;BME280;14380;49.910;6.792;2022-07-06T06:08:29;99729.69;;;18.69;67.86
26807;BME280;14380;49.910;6.792;2022-07-06T06:10:55;99722.31;;;18.60;67.51
26807;BME280;14380;49.910;6.792;2022-07-06T06:13:22;99722.47;;;19.42;68.43
26807;BME280;14380;49.910;6.792;2022-07-06T06:15:49;99726.19;;;18.55;68.19
26807;BME280;14380;49.910;6.792;2022-07-06T06:18:16;99733.72;;;18.37;68.27
26807;BME280;14380;49.910;6.792;2022-07-06T06:20:44;99727.91;;;18.56;68.82
26807;BME280;14380;49.910;6.792;2022-07-06T06:23:11;99732.94;;;17.72;70.57
26807;BME280;14380;49.910;6.792;2022-07-06T06:25:39;99732.59;;;17.90;69.69
26807;BME280;14380;49.910;6.792;2022-07-06T06:28:07;99734.72;;;17.20;72.29
26807;BME280;14380;49.910;6.792;2022-07-06T06:30:35;99736.47;;;17.06;73.82
26807;BME280;14380;49.910;6.792;2022-07-06T06:33:06;99742.41;;;17.50;72.17
26807;BME280;14380;49.910;6.792;2022-07-06T06:35:33;99745.69;;;17.28;72.68
26807;BME280;14380;49.910;6.792;2022-07-06T06:38:00;99729.19;;;17.75;71.76
26807;BME280;14380;49.910;6.792;2022-07-06T06:40:27;99733.78;;;18.62;72.38
26807;BME280;14380;49.910;6.792;2022-07-06T06:42:55;99733.78;;;18.62;69.30
26807;BME280;14380;49.910;6.792;2022-07-06T06:45:22;99745.22;;;17.62;69.59
26807;BME280;14380;49.910;6.792;2022-07-06T06:47:49;99750.97;;;17.68;73.40
26807;BME280;14380;49.910;6.792;2022-07-06T06:50:15;99757.25;;;17.29;72.07
26807;BME280;14380;49.910;6.792;2022-07-06T06:52:42;99750.47;;;18.02;71.31
26807;BME280;14380;49.910;6.792;2022-07-06T06:55:09;99756.69;;;18.53;70.19
26807;BME280;14380;49.910;6.792;2022-07-06T06:57:36;99754.56;;;18.58;69.15
26807;BME280;14380;49.910;6.792;2022-07-06T07:00:05;99756.69;;;19.14;68.79
26807;BME280;14380;49.910;6.792;2022-07-06T07:02:32;99764.22;;;19.09;66.68
26807;BME280;14380;49.910;6.792;2022-07-06T07:04:59;99759.84;;;17.56;69.85
26807;BME280;14380;49.910;6.792;2022-07-06T07:07:26;99759.03;;;18.07;68.69
26807;BME280;14380;49.910;6.792;2022-07-06T07:09:52;99771.22;;;17.32;71.25
26807;BME280;14380;49.910;6.792;2022-07-06T07:12:19;99766.59;;;16.94;73.83
26807;BME280;14380;49.910;6.792;2022-07-06T07:14:46;99774.59;;;16.94;74.34
26807;BME280;14380;49.910;6.792;2022-07-06T07:17:14;99775.66;;;16.91;75.04
26807;BME280;14380;49.910;6.792;2022-07-06T07:19:42;99774.38;;;16.70;75.10
26807;BME280;14380;49.910;6.792;2022-07-06T07:22:08;99768.97;;;17.26;76.59
26807;BME280;14380;49.910;6.792;2022-07-06T07:24:35;99760.88;;;17.41;71.06
26807;BME280;14380;49.910;6.792;2022-07-06T07:27:02;99753.09;;;18.41;72.15
26807;BME280;14380;49.910;6.792;2022-07-06T07:29:30;99747.69;;;18.91;71.65
26807;BME280;14380;49.910;6.792;2022-07-06T07:31:57;99753.41;;;18.36;68.48
26807;BME280;14380;49.910;6.792;2022-07-06T07:34:25;99755.47;;;18.94;71.63
26807;BME280;14380;49.910;6.792;2022-07-06T07:36:51;99759.59;;;18.50;70.13
26807;BME280;14380;49.910;6.792;2022-07-06T07:39:18;99759.44;;;18.14;70.22
26807;BME280;14380;49.910;6.792;2022-07-06T07:41:45;99774.94;;;16.75;71.70
26807;BME280;14380;49.910;6.792;2022-07-06T07:44:11;99773.22;;;16.74;72.56
26807;BME280;14380;49.910;6.792;2022-07-06T07:46:38;99767.50;;;17.22;72.22
26807;BME280;14380;49.910;6.792;2022-07-06T07:49:05;99757.59;;;17.50;71.81
26807;BME280;14380;49.910;6.792;2022-07-06T07:51:33;99758.91;;;17.83;70.05
26807;BME280;14380;49.910;6.792;2022-07-06T07:54:00;99750.25;;;18.31;66.88
26807;BME280;14380;49.910;6.792;2022-07-06T07:56:26;99749.88;;;18.49;66.78
26807;BME280;14380;49.910;6.792;2022-07-06T07:58:53;99745.09;;;18.41;67.94
26807;BME280;14380;49.910;6.792;2022-07-06T08:01:19;99756.03;;;18.62;64.67
26807;BME280;14380;49.910;6.792;2022-07-06T08:03:46;99751.00;;;18.20;63.65
26807;BME280;14380;49.910;6.792;2022-07-06T08:06:13;99760.97;;;19.17;63.87
26807;BME280;14380;49.910;6.792;2022-07-06T08:08:41;99742.53;;;19.37;62.83
26807;BME280;14380;49.910;6.792;2022-07-06T08:11:07;99747.50;;;19.30;62.27
26807;BME280;14380;49.910;6.792;2022-07-06T08:13:35;99751.09;;;19.53;61.23
26807;BME280;14380;49.910;6.792;2022-07-06T08:16:02;99737.31;;;19.94;62.03
26807;BME280;14380;49.910;6.792;2022-07-06T08:18:29;99730.75;;;19.51;61.49
26807;BME280;14380;49.910;6.792;2022-07-06T08:20:55;99737.91;;;19.39;60.52
26807;BME280;14380;49.910;6.792;2022-07-06T08:23:22;99738.25;;;19.81;62.34
26807;BME280;14380;49.910;6.792;2022-07-06T08:25:50;99730.63;;;19.41;60.63
26807;BME280;14380;49.910;6.792;2022-07-06T08:28:17;99739.25;;;19.91;60.45
26807;BME280;14380;49.910;6.792;2022-07-06T08:30:43;99741.88;;;19.80;59.99
26807;BME280;14380;49.910;6.792;2022-07-06T08:33:10;99740.44;;;19.87;60.77
26807;BME280;14380;49.910;6.792;2022-07-06T08:35:37;99751.31;;;19.39;60.60
26807;BME280;14380;49.910;6.792;2022-07-06T08:38:03;99756.66;;;18.90;61.96
26807;BME280;14380;49.910;6.792;2022-07-06T08:40:34;99752.50;;;18.62;62.74
26807;BME280;14380;49.910;6.792;2022-07-06T08:43:02;99748.78;;;19.13;62.42
26807;BME280;14380;49.910;6.792;2022-07-06T08:45:29;99749.59;;;18.89;62.48
26807;BME280;14380;49.910;6.792;2022-07-06T08:47:58;99751.16;;;19.87;64.04
26807;BME280;14380;49.910;6.792;2022-07-06T08:50:29;99733.66;;;20.06;60.23
26807;BME280;14380;49.910;6.792;2022-07-06T08:52:56;99730.31;;;21.03;61.41
26807;BME280;14380;49.910;6.792;2022-07-06T08:55:25;99727.00;;;20.67;57.65
26807;BME280;14380;49.910;6.792;2022-07-06T08:57:51;99727.78;;;21.23;58.61
26807;BME280;14380;49.910;6.792;2022-07-06T09:00:22;99730.28;;;20.71;58.37
26807;BME280;14380;49.910;6.792;2022-07-06T09:02:50;99730.47;;;20.90;59.00
26807;BME280;14380;49.910;6.792;2022-07-06T09:05:21;99731.91;;;19.82;58.60
26807;BME280;14380;49.910;6.792;2022-07-06T09:07:49;99742.28;;;20.32;60.16
26807;BME280;14380;49.910;6.792;2022-07-06T09:10:17;99736.09;;;20.20;60.48
26807;BME280;14380;49.910;6.792;2022-07-06T09:12:44;99731.19;;;20.37;60.25
26807;BME280;14380;49.910;6.792;2022-07-06T09:15:11;99734.00;;;20.35;60.07
26807;BME280;14380;49.910;6.792;2022-07-06T09:17:40;99747.25;;;19.80;59.74
26807;BME280;14380;49.910;6.792;2022-07-06T09:20:08;99747.38;;;19.79;60.30
26807;BME280;14380;49.910;6.792;2022-07-06T09:22:36;99748.78;;;19.96;60.53
26807;BME280;14380;49.910;6.792;2022-07-06T09:25:04;99739.50;;;20.34;60.62
26807;BME280;14380;49.910;6.792;2022-07-06T09:27:32;99741.56;;;20.08;60.94
26807;BME280;14380;49.910;6.792;2022-07-06T09:30:04;99746.19;;;19.83;59.15
26807;BME280;14380;49.910;6.792;2022-07-06T09:32:39;99733.53;;;20.19;59.26
26807;BME280;14380;49.910;6.792;2022-07-06T09:35:06;99731.38;;;20.79;60.08
26807;BME280;14380;49.910;6.792;2022-07-06T09:37:33;99729.09;;;21.50;56.92
26807;BME280;14380;49.910;6.792;2022-07-06T09:40:00;99734.56;;;22.12;55.12
26807;BME280;14380;49.910;6.792;2022-07-06T09:42:27;99726.28;;;22.95;55.80
26807;BME280;14380;49.910;6.792;2022-07-06T09:44:54;99720.03;;;22.24;54.60
26807;BME280;14380;49.910;6.792;2022-07-06T09:47:21;99735.88;;;21.12;55.17
26807;BME280;14380;49.910;6.792;2022-07-06T09:49:49;99729.34;;;21.25;55.50
26807;BME280;14380;49.910;6.792;2022-07-06T09:52:15;99731.00;;;20.73;55.86
26807;BME280;14380;49.910;6.792;2022-07-06T09:54:42;99742.53;;;19.95;56.83
26807;BME280;14380;49.910;6.792;2022-07-06T09:57:09;99741.16;;;20.58;57.64
26807;BME280;14380;49.910;6.792;2022-07-06T09:59:36;99735.94;;;21.00;56.97
26807;BME280;14380;49.910;6.792;2022-07-06T10:02:04;99738.31;;;21.15;56.48
26807;BME280;14380;49.910;6.792;2022-07-06T10:04:32;99730.22;;;21.47;54.86
26807;BME280;14380;49.910;6.792;2022-07-06T10:07:00;99734.69;;;21.04;56.81
26807;BME280;14380;49.910;6.792;2022-07-06T10:09:29;99738.47;;;21.13;56.71
26807;BME280;14380;49.910;6.792;2022-07-06T10:11:58;99729.63;;;21.44;56.33
26807;BME280;14380;49.910;6.792;2022-07-06T10:14:26;99734.31;;;22.25;54.65
26807;BME280;14380;49.910;6.792;2022-07-06T10:16:54;99727.22;;;21.83;54.98
26807;BME280;14380;49.910;6.792;2022-07-06T10:19:21;99718.19;;;23.05;53.50
26807;BME280;14380;49.910;6.792;2022-07-06T10:21:49;99711.38;;;22.71;52.24
26807;BME280;14380;49.910;6.792;2022-07-06T10:24:19;99723.28;;;22.79;52.16
26807;BME280;14380;49.910;6.792;2022-07-06T10:26:46;99719.19;;;22.94;52.06
26807;BME280;14380;49.910;6.792;2022-07-06T10:29:13;99718.31;;;22.23;52.97
26807;BME280;14380;49.910;6.792;2022-07-06T10:31:43;99725.13;;;20.90;53.46
26807;BME280;14380;49.910;6.792;2022-07-06T10:34:14;99721.03;;;21.29;54.97
26807;BME280;14380;49.910;6.792;2022-07-06T10:36:42;99711.09;;;22.24;51.89
26807;BME280;14380;49.910;6.792;2022-07-06T10:39:10;99716.19;;;22.87;52.85
26807;BME280;14380;49.910;6.792;2022-07-06T10:41:56;99724.84;;;23.21;50.33
26807;BME280;14380;49.910;6.792;2022-07-06T10:44:24;99714.38;;;23.17;52.89
26807;BME280;14380;49.910;6.792;2022-07-06T10:46:52;99718.22;;;23.35;51.40
26807;BME280;14380;49.910;6.792;2022-07-06T10:49:20;99718.34;;;22.94;50.63
26807;BME280;14380;49.910;6.792;2022-07-06T10:51:47;99715.84;;;23.69;50.23
26807;BME280;14380;49.910;6.792;2022-07-06T10:54:16;99711.38;;;23.21;49.49
26807;BME280;14380;49.910;6.792;2022-07-06T10:56:44;99707.97;;;23.58;52.17
26807;BME280;14380;49.910;6.792;2022-07-06T10:59:13;99697.03;;;23.87;49.71
26807;BME280;14380;49.910;6.792;2022-07-06T11:01:41;99708.25;;;22.66;51.24
26807;BME280;14380;49.910;6.792;2022-07-06T11:04:30;99706.13;;;22.90;50.11
26807;BME280;14380;49.910;6.792;2022-07-06T11:07:07;99699.03;;;24.51;50.26
26807;BME280;14380;49.910;6.792;2022-07-06T11:09:35;99702.69;;;24.04;48.82
26807;BME280;14380;49.910;6.792;2022-07-06T11:12:12;99716.50;;;24.57;48.46
26807;BME280;14380;49.910;6.792;2022-07-06T11:14:40;99701.84;;;24.95;49.44
26807;BME280;14380;49.910;6.792;2022-07-06T11:17:09;99690.00;;;25.51;49.00
26807;BME280;14380;49.910;6.792;2022-07-06T11:19:37;99699.06;;;25.23;47.28
26807;BME280;14380;49.910;6.792;2022-07-06T11:22:08;99700.44;;;23.89;48.31
26807;BME280;14380;49.910;6.792;2022-07-06T11:24:37;99695.00;;;24.83;48.54
26807;BME280;14380;49.910;6.792;2022-07-06T11:27:04;99702.56;;;23.96;48.53
26807;BME280;14380;49.910;6.792;2022-07-06T11:29:32;99713.34;;;22.79;50.05
26807;BME280;14380;49.910;6.792;2022-07-06T11:32:01;99690.41;;;23.14;49.91
26807;BME280;14380;49.910;6.792;2022-07-06T11:34:30;99694.94;;;23.04;50.19
26807;BME280;14380;49.910;6.792;2022-07-06T11:36:59;99687.97;;;22.52;51.27
26807;BME280;14380;49.910;6.792;2022-07-06T11:39:26;99693.16;;;23.72;50.68
26807;BME280;14380;49.910;6.792;2022-07-06T11:41:54;99695.06;;;23.99;49.52
26807;BME280;14380;49.910;6.792;2022-07-06T11:44:21;99683.69;;;24.05;48.54
26807;BME280;14380;49.910;6.792;2022-07-06T11:46:48;99684.34;;;24.08;49.90
26807;BME280;14380;49.910;6.792;2022-07-06T11:49:17;99681.16;;;24.50;49.83
26807;BME280;14380;49.910;6.792;2022-07-06T11:51:45;99675.50;;;24.61;49.48
26807;BME280;14380;49.910;6.792;2022-07-06T11:54:14;99672.66;;;24.17;51.28
26807;BME280;14380;49.910;6.792;2022-07-06T11:56:45;99686.13;;;24.73;49.80
26807;BME280;14380;49.910;6.792;2022-07-06T11:59:14;99682.88;;;24.69;49.01
26807;BME280;14380;49.910;6.792;2022-07-06T12:01:42;99683.00;;;24.49;48.13
26807;BME280;14380;49.910;6.792;2022-07-06T12:04:10;99674.78;;;24.87;50.73
26807;BME280;14380;49.910;6.792;2022-07-06T12:06:38;99676.06;;;24.65;48.92
26807;BME280;14380;49.910;6.792;2022-07-06T12:09:05;99668.38;;;25.51;48.92
26807;BME280;14380;49.910;6.792;2022-07-06T12:11:33;99684.19;;;23.71;48.63
26807;BME280;14380;49.910;6.792;2022-07-06T12:14:01;99686.38;;;23.58;50.49
26807;BME280;14380;49.910;6.792;2022-07-06T12:16:30;99681.63;;;23.80;48.55
26807;BME280;14380;49.910;6.792;2022-07-06T12:18:58;99669.13;;;24.99;49.52
26807;BME280;14380;49.910;6.792;2022-07-06T12:21:25;99665.06;;;24.76;47.85
26807;BME280;14380;49.910;6.792;2022-07-06T12:23:54;99675.44;;;24.07;50.58
26807;BME280;14380;49.910;6.792;2022-07-06T12:26:22;99672.56;;;23.71;49.92
26807;BME280;14380;49.910;6.792;2022-07-06T12:29:00;99677.16;;;23.60;50.15
26807;BME280;14380;49.910;6.792;2022-07-06T12:31:34;99677.91;;;23.33;49.41
26807;BME280;14380;49.910;6.792;2022-07-06T12:34:02;99674.41;;;23.70;49.38
26807;BME280;14380;49.910;6.792;2022-07-06T12:36:30;99670.28;;;23.76;50.32
26807;BME280;14380;49.910;6.792;2022-07-06T12:38:58;99669.97;;;24.17;50.73
26807;BME280;14380;49.910;6.792;2022-07-06T12:41:30;99659.94;;;24.73;49.70
26807;BME280;14380;49.910;6.792;2022-07-06T12:44:02;99659.19;;;24.63;47.99
26807;BME280;14380;49.910;6.792;2022-07-06T12:46:29;99679.03;;;23.88;48.00
26807;BME280;14380;49.910;6.792;2022-07-06T12:48:58;99684.59;;;23.29;48.93
26807;BME280;14380;49.910;6.792;2022-07-06T12:51:25;99663.09;;;23.95;50.04
26807;BME280;14380;49.910;6.792;2022-07-06T12:54:12;99662.47;;;22.96;48.87
26807;BME280;14380;49.910;6.792;2022-07-06T12:56:58;99668.72;;;23.36;50.46
26807;BME280;14380;49.910;6.792;2022-07-06T12:59:25;99674.69;;;23.29;49.60
26807;BME280;14380;49.910;6.792;2022-07-06T13:01:52;99671.53;;;23.82;49.82